Time;durP1;ratioP1;P1;durP2;ratioP2;P2;SDS_P1;SDS_P2;PMS_P1;PMS_P2;Temp;Humidity;BMP_temperature;BMP_pressure;BME280_temperature;BME280_humidity;BME280_pressure;Samples;Min_cycle;Max_cycle;Signal;HPM_P1;HPM_P2
2021/01/29 00:00:32;;;;;;;24.70;16.07;;;;;;;-0.32;90.83;98125.77;1786752;80;21934;-66
2021/01/29 00:03:01;;;;;;;;;;;;;;;-0.34;90.90;98125.39;1789506;79;21546;-65
2021/01/29 00:05:39;;;;;;;22.93;15.00;;;;;;;-0.35;90.98;98121.62;1786855;79;21361;-66
2021/01/29 00:08:08;;;;;;;22.48;14.38;;;;;;;-0.36;91.12;98123.34;1786684;80;21589;-66
2021/01/29 00:10:37;;;;;;;21.75;14.87;;;;;;;-0.35;91.22;98124.17;1786811;80;20961;-66
2021/01/29 00:13:05;;;;;;;22.15;14.63;;;;;;;-0.35;91.22;98122.89;1786719;80;21011;-66
2021/01/29 00:15:34;;;;;;;19.15;13.98;;;;;;;-0.36;91.27;98119.95;1786825;80;20960;-66
2021/01/29 00:18:03;;;;;;;20.60;15.72;;;;;;;-0.37;91.25;98117.84;1786799;80;22183;-64
2021/01/29 00:20:31;;;;;;;19.42;14.28;;;;;;;-0.37;91.31;98119.13;1786774;80;20992;-64
2021/01/29 00:23:00;;;;;;;16.60;12.98;;;;;;;-0.36;91.35;98109.73;1786835;80;21356;-64
2021/01/29 00:25:32;;;;;;;19.05;12.60;;;;;;;-0.37;91.29;98115.29;1786817;80;20952;-64
2021/01/29 00:28:00;;;;;;;18.50;13.25;;;;;;;-0.37;91.34;98108.89;1786868;79;20945;-64
2021/01/29 00:30:29;;;;;;;17.10;12.37;;;;;;;-0.36;91.32;98104.61;1786902;80;22180;-64
2021/01/29 00:32:59;;;;;;;14.60;11.33;;;;;;;-0.37;91.34;98099.95;1786942;80;21102;-64
2021/01/29 00:35:30;;;;;;;13.90;11.15;;;;;;;-0.38;91.38;98101.29;1786986;79;20929;-64
2021/01/29 00:37:59;;;;;;;14.87;11.12;;;;;;;-0.40;91.37;98102.63;1786962;80;20929;-64
2021/01/29 00:40:27;;;;;;;16.02;11.38;;;;;;;-0.41;91.43;98089.95;1787011;80;21466;-65
2021/01/29 00:42:57;;;;;;;13.30;10.75;;;;;;;-0.43;91.47;98093.84;1787008;80;21096;-64
2021/01/29 00:45:28;;;;;;;13.28;10.40;;;;;;;-0.44;91.50;98084.96;1786904;80;21590;-65
2021/01/29 00:47:56;;;;;;;15.98;11.68;;;;;;;-0.45;91.55;98085.41;1787000;79;20929;-64
2021/01/29 00:50:26;;;;;;;14.58;11.28;;;;;;;-0.44;91.63;98087.07;1756314;80;21604;-65
2021/01/29 00:52:55;;;;;;;15.93;12.13;;;;;;;-0.44;91.58;98076.84;1786961;79;21008;-64
2021/01/29 00:55:24;;;;;;;16.60;11.68;;;;;;;-0.44;91.64;98071.73;1786996;78;21572;-64
2021/01/29 00:57:54;;;;;;;15.55;11.53;;;;;;;-0.43;91.57;98067.00;1786879;79;21629;-64
2021/01/29 01:00:41;;;;;;;14.47;10.80;;;;;;;-0.43;91.62;98062.34;1786997;80;21574;-64
2021/01/29 01:03:11;;;;;;;15.10;11.40;;;;;;;-0.43;91.67;98056.77;1786533;80;21980;-63
2021/01/29 01:05:42;;;;;;;15.63;11.83;;;;;;;-0.45;91.62;98053.90;1787000;79;21584;-66
2021/01/29 01:08:10;;;;;;;15.95;11.97;;;;;;;-0.44;91.64;98056.39;1786986;80;22182;-65
2021/01/29 01:10:53;;;;;;;17.23;13.03;;;;;;;-0.43;91.69;98054.66;1782458;80;21453;-66
2021/01/29 01:13:35;;;;;;;17.50;13.15;;;;;;;-0.44;91.57;98045.33;1753689;80;21619;-65
2021/01/29 01:16:10;;;;;;;19.25;12.47;;;;;;;-0.44;91.61;98051.28;1753263;80;21577;-65
2021/01/29 01:18:39;;;;;;;17.40;13.50;;;;;;;-0.45;91.75;98042.39;1787010;80;21568;-66
2021/01/29 01:21:10;;;;;;;16.02;12.40;;;;;;;-0.48;91.71;98034.41;1786546;80;22320;-65
2021/01/29 01:23:40;;;;;;;17.98;12.90;;;;;;;-0.47;91.79;98041.18;1786945;80;21562;-66
2021/01/29 01:26:09;;;;;;;18.32;13.00;;;;;;;-0.49;91.78;98033.20;1786940;80;21471;-65
2021/01/29 01:28:47;;;;;;;16.95;12.55;;;;;;;-0.50;91.84;98039.20;1782397;80;21506;-65
2021/01/29 01:31:17;;;;;;;15.25;12.03;;;;;;;-0.51;91.94;98038.38;1786509;80;21553;-65
2021/01/29 01:33:48;;;;;;;16.62;13.08;;;;;;;-0.50;91.98;98038.76;1786674;80;21478;-66
2021/01/29 01:36:35;;;;;;;16.70;12.75;;;;;;;-0.49;92.06;98030.64;1786894;80;21570;-65
2021/01/29 01:39:05;;;;;;;15.43;11.78;;;;;;;-0.49;92.07;98034.02;1782445;80;21573;-65
2021/01/29 01:41:34;;;;;;;18.27;12.30;;;;;;;-0.49;92.03;98031.92;1786858;80;21455;-66
2021/01/29 01:44:24;;;;;;;15.55;12.15;;;;;;;-0.50;92.01;98022.59;1786955;80;21597;-65
2021/01/29 01:47:00;;;;;;;15.70;12.33;;;;;;;-0.51;92.01;98018.38;1785611;80;22223;-66
2021/01/29 01:49:44;;;;;;;16.27;12.37;;;;;;;-0.51;92.04;98019.20;1786989;80;21577;-66
2021/01/29 01:52:36;;;;;;;13.22;10.30;;;;;;;-0.52;92.12;98021.38;1786836;79;21522;-66
2021/01/29 01:55:22;;;;;;;11.80;9.75;;;;;;;-0.52;92.32;98020.09;1782386;78;21510;-66
2021/01/29 01:57:56;;;;;;;13.53;9.78;;;;;;;-0.50;92.36;98019.58;1780938;80;21597;-65
2021/01/29 02:00:38;;;;;;;10.20;9.08;;;;;;;-0.49;92.27;98019.97;1786084;80;22115;-66
2021/01/29 02:03:23;;;;;;;11.93;8.85;;;;;;;-0.50;92.21;98019.58;1786269;80;21530;-65
2021/01/29 02:06:00;;;;;;;10.20;8.40;;;;;;;-0.49;92.17;98016.58;1759881;80;21526;-66
2021/01/29 02:08:48;;;;;;;9.80;8.40;;;;;;;-0.50;92.16;98016.20;1784281;80;21478;-65
2021/01/29 02:11:20;;;;;;;9.18;8.18;;;;;;;-0.52;92.03;98012.43;1786931;80;21474;-65
2021/01/29 02:14:04;;;;;;;9.25;8.35;;;;;;;-0.53;91.88;98009.94;1785579;80;22167;-65
2021/01/29 02:16:46;;;;;;;9.28;8.23;;;;;;;-0.55;91.80;98007.89;1785486;80;20988;-65
2021/01/29 02:19:48;;;;;;;12.50;8.75;;;;;;;-0.57;91.76;98012.24;1786315;80;21371;-65
2021/01/29 02:22:47;;;;;;;11.03;8.40;;;;;;;-0.60;91.71;98002.16;1786858;80;20969;-65
2021/01/29 02:26:02;;;;;;;13.58;8.15;;;;;;;-0.61;91.67;98009.44;1786948;80;21926;-65
2021/01/29 02:29:17;;;;;;;12.18;7.67;;;;;;;-0.63;91.58;98011.23;1786578;80;23541;-65
2021/01/29 02:32:32;;;;;;;9.35;7.20;;;;;;;-0.67;91.47;98012.64;1786212;80;20972;-65
2021/01/29 02:35:09;;;;;;;9.80;7.60;;;;;;;-0.71;91.39;98007.27;1786339;80;21506;-65
2021/01/29 02:38:09;;;;;;;8.50;7.22;;;;;;;-0.74;91.22;98006.13;1786856;80;21542;-65
2021/01/29 02:41:03;;;;;;;14.13;7.83;;;;;;;-0.76;91.27;98007.09;1757511;80;21542;-65
2021/01/29 02:43:47;;;;;;;12.05;7.15;;;;;;;-0.75;91.42;98001.08;1786911;80;22210;-66
2021/01/29 02:46:50;;;;;;;10.95;7.67;;;;;;;-0.76;91.32;98007.92;1759411;80;21502;-65
2021/01/29 02:50:03;;;;;;;11.90;7.35;;;;;;;-0.78;91.05;98007.59;1764707;80;21592;-65
2021/01/29 02:53:24;;;;;;;9.28;7.15;;;;;;;-0.83;90.86;97996.77;1722050;80;23421;-66
2021/01/29 02:56:56;;;;;;;7.75;7.05;;;;;;;-0.86;90.95;98004.56;1786842;78;21494;-65
2021/01/29 02:59:47;;;;;;;8.35;7.53;;;;;;;-0.86;91.08;98002.02;1782220;80;21355;-65
2021/01/29 03:02:53;;;;;;;7.53;6.75;;;;;;;-0.86;90.95;98007.95;1786543;80;21383;-65
2021/01/29 03:05:52;;;;;;;7.87;7.00;;;;;;;-0.86;90.97;98002.02;1785894;80;20992;-66
2021/01/29 03:08:28;;;;;;;7.58;6.87;;;;;;;-0.88;90.86;98003.35;1728740;80;21559;-67
2021/01/29 03:11:36;;;;;;;9.03;7.50;;;;;;;-0.90;90.86;98000.48;1762304;80;20944;-67
2021/01/29 03:14:47;;;;;;;7.47;6.70;;;;;;;-0.89;90.74;97992.75;1786849;79;22082;-65
2021/01/29 03:18:04;;;;;;;7.72;7.03;;;;;;;-0.88;90.65;97992.30;1786801;80;21607;-65
2021/01/29 03:20:56;;;;;;;7.67;6.87;;;;;;;-0.89;90.51;97992.75;1786956;79;21515;-65
2021/01/29 03:23:51;;;;;;;9.73;7.65;;;;;;;-0.91;90.47;97986.05;1786862;80;21609;-65
2021/01/29 03:26:41;;;;;;;8.08;7.22;;;;;;;-0.92;90.44;97983.94;1737005;82;21639;-64
2021/01/29 03:29:33;;;;;;;8.15;7.35;;;;;;;-0.91;90.56;97987.33;1754192;81;21499;-64
2021/01/29 03:32:20;;;;;;;7.50;6.80;;;;;;;-0.92;90.64;97981.38;1768122;81;21498;-64
2021/01/29 03:35:17;;;;;;;7.53;6.60;;;;;;;-0.92;90.62;97982.66;1783905;80;20972;-64
2021/01/29 03:38:15;;;;;;;8.35;7.08;;;;;;;-0.93;90.42;97978.89;1773859;81;21581;-64
2021/01/29 03:41:24;;;;;;;9.30;6.97;;;;;;;-0.96;90.44;97976.02;1770668;81;21636;-64
2021/01/29 03:44:29;;;;;;;8.28;6.80;;;;;;;-0.95;90.52;97981.52;1773887;81;22354;-64
2021/01/29 03:47:32;;;;;;;7.28;6.65;;;;;;;-0.95;90.46;97980.69;1773878;81;21483;-65
2021/01/29 03:50:28;;;;;;;7.20;6.50;;;;;;;-0.96;90.46;97977.30;1773905;81;21371;-64
2021/01/29 03:53:49;;;;;;;7.10;6.50;;;;;;;-0.97;90.44;97971.80;1773982;81;21626;-64
2021/01/29 03:57:02;;;;;;;7.15;6.45;;;;;;;-0.96;90.96;97975.19;1787547;79;21558;-64
2021/01/29 04:00:06;;;;;;;6.45;5.83;;;;;;;-0.89;91.06;97978.70;1800273;79;22782;-64
2021/01/29 04:02:54;;;;;;;6.05;5.47;;;;;;;-0.86;90.71;97972.63;1800088;79;21638;-64
2021/01/29 04:05:56;;;;;;;5.60;5.10;;;;;;;-0.83;90.68;97972.05;1800320;79;21543;-64
2021/01/29 04:09:03;;;;;;;5.75;5.25;;;;;;;-0.82;90.50;97973.71;1800403;79;21582;-64
2021/01/29 04:11:53;;;;;;;5.17;4.78;;;;;;;-0.79;90.36;97973.55;1800583;79;20915;-64
2021/01/29 04:14:44;;;;;;;5.40;4.90;;;;;;;-0.77;90.05;97964.09;1799277;79;23078;-64
2021/01/29 04:17:17;;;;;;;5.53;4.78;;;;;;;-0.76;89.90;97970.03;1799890;79;21688;-64
2021/01/29 04:19:47;;;;;;;5.72;4.30;;;;;;;-0.76;89.60;97970.03;1799998;79;21551;-64
2021/01/29 04:22:24;;;;;;;4.78;4.37;;;;;;;-0.79;89.31;97963.33;1800446;79;21587;-65
2021/01/29 04:25:03;;;;;;;5.05;4.60;;;;;;;-0.82;89.17;97968.60;1800434;79;21041;-65
2021/01/29 04:27:35;;;;;;;4.92;4.42;;;;;;;-0.83;89.12;97965.66;1800414;79;22184;-65
2021/01/29 04:30:10;;;;;;;5.22;4.78;;;;;;;-0.86;88.97;97952.19;1800288;79;21013;-65
2021/01/29 04:32:42;;;;;;;5.17;4.62;;;;;;;-0.87;88.86;97957.75;1767502;79;21472;-65
2021/01/29 04:35:14;;;;;;;6.12;5.50;;;;;;;-0.87;88.95;97958.20;1799841;79;21622;-64
2021/01/29 04:37:53;;;;;;;5.58;4.90;;;;;;;-0.87;89.02;97959.47;1767865;79;21585;-65
2021/01/29 04:40:33;;;;;;;5.28;4.78;;;;;;;-0.86;88.99;97958.13;1800394;79;22716;-65
2021/01/29 04:43:31;;;;;;;4.12;3.77;;;;;;;-0.84;88.74;97969.56;1800307;79;21657;-65
2021/01/29 04:46:40;;;;;;;6.35;3.98;;;;;;;-0.86;88.36;97964.52;1800433;79;21499;-67
2021/01/29 04:49:20;;;;;;;5.15;4.42;;;;;;;-0.91;88.03;97968.99;1729960;82;21538;-65
2021/01/29 04:52:39;;;;;;;6.55;4.72;;;;;;;-0.93;88.03;97977.17;1843580;77;28249;-64
2021/01/29 04:55:41;;;;;;;5.97;4.55;;;;;;;-1.00;88.01;97969.38;1823638;78;21539;-64
2021/01/29 04:58:15;;;;;;;4.47;4.08;;;;;;;-1.01;87.80;97967.72;1815620;79;21431;-64
2021/01/29 05:01:43;;;;;;;5.33;4.83;;;;;;;-1.08;87.48;97976.08;1816155;79;20951;-65
2021/01/29 05:04:51;;;;;;;4.50;4.10;;;;;;;-1.11;87.51;97973.66;1704217;84;21532;-65
2021/01/29 05:08:06;;;;;;;6.25;4.92;;;;;;;-1.11;87.48;97972.83;1890592;76;28220;-65
2021/01/29 05:11:38;;;;;;;4.70;4.30;;;;;;;-1.17;87.44;97984.13;1861603;77;21490;-64
2021/01/29 05:14:41;;;;;;;5.00;4.60;;;;;;;-1.19;87.29;97990.19;1821453;78;21203;-63
2021/01/29 05:17:47;;;;;;;4.78;4.37;;;;;;;-1.20;87.32;97994.47;1826771;77;21459;-63
2021/01/29 05:20:45;;;;;;;5.15;4.58;;;;;;;-1.20;87.07;98001.33;1789112;80;21020;-63
2021/01/29 05:23:44;;;;;;;4.10;3.80;;;;;;;-1.24;86.43;97999.34;1861364;77;20996;-63
2021/01/29 05:26:40;;;;;;;4.50;4.12;;;;;;;-1.27;86.22;98003.74;1861430;77;21589;-65
2021/01/29 05:29:29;;;;;;;4.17;3.80;;;;;;;-1.31;85.90;98012.41;1861541;77;21491;-65
2021/01/29 05:32:23;;;;;;;4.50;4.10;;;;;;;-1.35;86.16;98006.16;1844140;77;20984;-64
2021/01/29 05:35:37;;;;;;;4.97;4.47;;;;;;;-1.32;86.28;98010.75;1829467;77;20981;-65
2021/01/29 05:38:40;;;;;;;4.40;4.08;;;;;;;-1.30;86.29;98010.25;1821389;78;21578;-62
2021/01/29 05:41:41;;;;;;;4.95;4.10;;;;;;;-1.26;86.17;98019.00;1815886;79;21476;-65
2021/01/29 05:44:26;;;;;;;4.50;4.17;;;;;;;-1.24;85.84;98019.77;1815860;79;22081;-66
2021/01/29 05:47:29;;;;;;;4.95;4.55;;;;;;;-1.22;85.66;98015.88;1815821;79;21004;-66
2021/01/29 05:50:30;;;;;;;4.17;3.85;;;;;;;-1.22;85.18;98009.49;1783443;80;21368;-67
2021/01/29 05:53:12;;;;;;;4.10;3.80;;;;;;;-1.24;85.13;98015.94;1783480;80;20994;-67
2021/01/29 05:56:00;;;;;;;4.80;4.40;;;;;;;-1.22;85.19;98019.27;1789407;77;21163;-68
2021/01/29 05:59:16;;;;;;;6.05;4.12;;;;;;;-1.20;85.25;98019.20;1765555;79;21449;-67
2021/01/29 06:02:18;;;;;;;5.55;4.25;;;;;;;-1.17;85.73;98018.59;1746620;79;21146;-66
2021/01/29 06:05:22;;;;;;;5.53;4.65;;;;;;;-1.11;85.20;98011.13;1808111;77;21013;-66
2021/01/29 06:08:23;;;;;;;5.50;5.00;;;;;;;-1.10;84.74;98011.52;1795477;77;21032;-67
2021/01/29 06:11:19;;;;;;;6.08;5.47;;;;;;;-1.07;84.29;98005.01;1793059;77;21044;-72
2021/01/29 06:14:38;;;;;;;5.78;4.87;;;;;;;-1.06;83.75;98010.05;1787666;77;21558;-70
2021/01/29 06:17:30;;;;;;;6.97;4.67;;;;;;;-1.08;83.29;98011.01;1773114;79;21089;-80
2021/01/29 06:20:36;;;;;;;5.20;4.30;;;;;;;-1.09;83.11;98011.91;1748392;79;21195;-67
2021/01/29 06:23:36;;;;;;;5.92;5.33;;;;;;;-1.10;82.81;98016.63;1784167;79;21057;-74
2021/01/29 06:26:09;;;;;;;5.58;4.72;;;;;;;-1.13;82.46;98018.86;1795171;78;21306;-69
2021/01/29 06:28:48;;;;;;;5.90;4.28;;;;;;;-1.16;82.34;98014.32;1795800;77;21193;-68
2021/01/29 06:32:05;;;;;;;5.28;4.50;;;;;;;-1.18;82.53;98006.72;1791393;78;21060;-68
2021/01/29 06:35:00;;;;;;;5.05;4.60;;;;;;;-1.16;82.49;98011.32;1807420;78;22366;-68
2021/01/29 06:37:49;;;;;;;4.10;3.80;;;;;;;-1.16;82.21;98004.11;1800144;79;20950;-67
2021/01/29 06:40:44;;;;;;;4.28;3.58;;;;;;;-1.15;82.08;98004.48;1757196;79;21635;-68
2021/01/29 06:43:52;;;;;;;5.17;3.30;;;;;;;-1.16;81.94;98007.48;1782644;78;21337;-67
2021/01/29 06:46:40;;;;;;;;;;;;;;;-1.17;81.95;98003.28;1776452;79;21099;-67
2021/01/29 06:49:19;;;;;;;2.90;2.70;;;;;;;-1.16;81.95;97997.28;1765494;79;20194;-66
2021/01/29 06:51:53;;;;;;;4.25;3.65;;;;;;;-1.16;81.56;97999.83;1756614;80;20993;-67
2021/01/29 06:54:49;;;;;;;4.22;3.83;;;;;;;-1.18;81.27;97996.95;1794400;79;21018;-69
2021/01/29 06:57:45;;;;;;;3.70;3.40;;;;;;;-1.20;81.07;97995.74;1792392;77;22123;-67
2021/01/29 07:00:40;;;;;;;3.70;3.40;;;;;;;-1.21;80.56;97989.00;1719027;80;21548;-68
2021/01/29 07:03:47;;;;;;;4.33;3.92;;;;;;;-1.21;80.65;97997.94;1763337;79;21041;-70
2021/01/29 07:06:30;;;;;;;6.70;3.65;;;;;;;-1.21;80.54;97999.22;1795010;77;21021;-69
2021/01/29 07:09:47;;;;;;;3.55;3.25;;;;;;;-1.19;80.37;97997.41;1788184;79;21375;-69
2021/01/29 07:12:32;;;;;;;3.95;3.65;;;;;;;-1.17;80.02;98000.72;1799045;79;22885;-70
2021/01/29 07:15:25;;;;;;;4.62;4.15;;;;;;;-1.16;78.80;97989.61;1811816;77;21339;-69
2021/01/29 07:18:43;;;;;;;3.60;3.30;;;;;;;-1.17;78.49;97990.51;1829728;77;21161;-68
2021/01/29 07:21:47;;;;;;;3.60;3.30;;;;;;;-1.15;78.05;97989.17;1804691;79;21033;-72
2021/01/29 07:24:33;;;;;;;3.80;3.50;;;;;;;-1.17;77.65;97988.40;1857049;76;21005;-69
2021/01/29 07:27:40;;;;;;;4.42;4.03;;;;;;;-1.16;77.19;97988.78;1845739;76;21188;-68
2021/01/29 07:30:47;;;;;;;;;;;;;;;-1.20;76.63;97987.28;1799262;78;22276;-68
2021/01/29 07:33:29;;;;;;;3.33;3.12;;;;;;;-1.21;76.51;97992.84;1794493;79;20546;-70
2021/01/29 07:36:27;;;;;;;3.50;3.30;;;;;;;-1.23;76.03;97998.90;1821868;77;21606;-74
2021/01/29 07:39:10;;;;;;;3.75;3.45;;;;;;;-1.22;75.62;97997.56;1817449;78;21755;-69
2021/01/29 07:41:58;;;;;;;3.58;3.30;;;;;;;-1.17;75.32;98011.38;1789899;79;21210;-71
2021/01/29 07:44:39;;;;;;;3.42;3.12;;;;;;;-1.10;75.30;98006.41;1811466;78;21541;-67
2021/01/29 07:47:35;;;;;;;3.47;3.17;;;;;;;-1.09;74.53;98004.23;1785858;78;21150;-67
2021/01/29 07:50:34;;;;;;;3.58;3.27;;;;;;;-1.18;74.04;98007.17;1789110;78;21013;-66
2021/01/29 07:53:42;;;;;;;4.03;3.33;;;;;;;-1.32;73.95;98001.38;1868242;76;28347;-67
2021/01/29 07:56:59;;;;;;;6.30;4.10;;;;;;;-1.44;74.08;98008.24;1776435;79;20990;-69
2021/01/29 07:59:51;;;;;;;4.20;3.80;;;;;;;;;;1785577;79;22446;-68
2021/01/29 08:02:41;;;;;;;4.45;4.05;;;;;;;-1.49;74.68;98009.70;1792252;78;21005;-72
2021/01/29 08:05:18;;;;;;;4.83;4.35;;;;;;;-1.45;74.53;98003.58;1779482;79;21485;-67
2021/01/29 08:07:50;;;;;;;5.15;4.65;;;;;;;-1.40;74.51;98012.34;1779445;79;21645;-67
2021/01/29 08:10:28;;;;;;;5.45;4.97;;;;;;;-1.38;74.58;98006.28;1781230;80;21017;-67
2021/01/29 08:13:21;;;;;;;5.78;5.17;;;;;;;-1.37;74.55;98007.94;1773187;80;22240;-68
2021/01/29 08:16:16;;;;;;;5.62;5.00;;;;;;;-1.34;74.66;98009.54;1775178;80;21128;-65
2021/01/29 08:19:23;;;;;;;6.12;5.53;;;;;;;-1.29;74.53;98011.47;1791228;79;21574;-69
2021/01/29 08:22:04;;;;;;;9.30;6.22;;;;;;;-1.25;74.84;98014.72;1789504;79;21075;-72
2021/01/29 08:24:41;;;;;;;6.45;5.85;;;;;;;-1.28;75.37;98011.02;1799088;78;21095;-70
2021/01/29 08:27:21;;;;;;;9.38;6.85;;;;;;;-1.30;75.50;98008.52;1758230;80;21818;-69
2021/01/29 08:30:44;;;;;;;8.23;7.22;;;;;;;-1.35;76.04;98006.16;1759242;80;21655;-70
2021/01/29 08:33:48;;;;;;;8.83;7.37;;;;;;;-1.35;76.12;98000.22;1729947;80;21074;-65
2021/01/29 08:36:44;;;;;;;9.20;7.45;;;;;;;-1.39;76.25;97998.23;1761424;80;21196;-66
2021/01/29 08:39:26;;;;;;;12.37;9.05;;;;;;;-1.46;76.43;97992.16;1782709;80;21744;-68
2021/01/29 08:42:12;;;;;;;8.98;6.95;;;;;;;-1.53;77.18;97987.74;1775949;79;21370;-68
2021/01/29 08:44:58;;;;;;;8.28;7.10;;;;;;;-1.54;77.29;97986.08;1776107;79;21801;-67
2021/01/29 08:48:14;;;;;;;9.25;7.50;;;;;;;-1.54;77.20;97986.53;1773109;78;21032;-68
2021/01/29 08:51:06;;;;;;;8.50;6.97;;;;;;;-1.57;77.33;97987.48;1792081;79;21088;-69
2021/01/29 08:54:03;;;;;;;8.43;7.22;;;;;;;-1.61;77.95;97982.14;1777075;80;21063;-67
2021/01/29 08:56:53;;;;;;;7.40;6.70;;;;;;;-1.63;78.17;97980.09;1788657;79;21559;-65
2021/01/29 08:59:25;;;;;;;9.33;7.17;;;;;;;-1.60;78.43;97963.36;1767435;79;21092;-67
2021/01/29 09:02:08;;;;;;;10.95;9.85;;;;;;;-1.56;78.67;97973.00;1787224;79;21138;-66
2021/01/29 09:04:52;;;;;;;12.80;10.58;;;;;;;-1.52;78.72;97970.70;1760953;79;21770;-67
2021/01/29 09:07:33;;;;;;;12.98;10.70;;;;;;;-1.47;78.74;97964.98;1755006;80;21631;-66
2021/01/29 09:10:33;;;;;;;13.80;8.80;;;;;;;-1.43;78.58;97971.17;1780834;79;21270;-66
2021/01/29 09:13:05;;;;;;;11.68;9.15;;;;;;;-1.41;78.46;97971.94;1776073;79;21780;-64
2021/01/29 09:16:17;;;;;;;10.58;8.78;;;;;;;-1.38;78.50;97967.98;1776342;80;21018;-64
2021/01/29 09:18:59;;;;;;;12.30;10.25;;;;;;;-1.38;78.61;97961.61;1767301;79;21769;-65
2021/01/29 09:22:08;;;;;;;12.28;9.93;;;;;;;-1.40;78.48;97963.39;1786630;79;22215;-67
2021/01/29 09:25:16;;;;;;;11.45;10.03;;;;;;;-1.46;78.78;97961.09;1777469;80;22091;-68
2021/01/29 09:28:03;;;;;;;;;;;;;;;-1.57;78.77;97954.75;1800486;78;21119;-66
2021/01/29 09:30:56;;;;;;;11.87;9.40;;;;;;;-1.65;79.56;97952.98;1791046;79;20537;-66
2021/01/29 09:33:38;;;;;;;13.88;11.15;;;;;;;-1.69;79.51;97943.34;1796674;78;22383;-66
2021/01/29 09:36:41;;;;;;;12.85;10.15;;;;;;;-1.72;79.55;97946.84;1784187;79;21630;-69
2021/01/29 09:39:26;;;;;;;15.90;12.53;;;;;;;-1.73;79.49;97940.52;1771084;79;22243;-65
2021/01/29 09:42:04;;;;;;;15.65;12.60;;;;;;;-1.80;79.32;97935.28;1775660;79;21637;-69
2021/01/29 09:44:38;;;;;;;15.43;12.98;;;;;;;-1.85;79.64;97938.45;1787299;79;21188;-68
2021/01/29 09:47:07;;;;;;;16.07;12.45;;;;;;;-1.86;79.49;97938.90;1799387;79;22259;-69
2021/01/29 09:49:37;;;;;;;18.00;13.65;;;;;;;-1.89;79.76;97931.37;1741315;81;21654;-70
2021/01/29 09:52:34;;;;;;;17.90;14.18;;;;;;;-1.93;79.61;97928.55;1777868;79;22000;-70
2021/01/29 09:55:14;;;;;;;17.23;14.10;;;;;;;-1.94;79.93;97927.34;1794328;79;21662;-67
2021/01/29 09:58:11;;;;;;;20.60;15.30;;;;;;;-1.94;79.89;97924.34;1739047;81;21076;-68
2021/01/29 10:00:37;;;;;;;21.60;15.18;;;;;;;-1.95;79.85;97920.13;1753429;80;21300;-67
2021/01/29 10:03:18;;;;;;;23.40;17.10;;;;;;;-1.91;80.30;97915.30;1769023;80;21041;-69
2021/01/29 10:06:03;;;;;;;25.32;17.37;;;;;;;-1.82;80.15;97916.66;1759786;79;22012;-69
2021/01/29 10:08:41;;;;;;;26.02;18.15;;;;;;;-1.78;80.20;97920.75;1743929;81;21690;-69
2021/01/29 10:11:36;;;;;;;26.65;17.75;;;;;;;-1.75;80.05;97914.25;1744391;82;21010;-68
2021/01/29 10:14:18;;;;;;;26.57;20.77;;;;;;;-1.75;80.10;97912.97;1769394;80;21578;-73
2021/01/29 10:16:56;;;;;;;26.33;19.75;;;;;;;-1.76;80.02;97910.86;1769941;81;21668;-68
2021/01/29 10:19:39;;;;;;;27.32;19.82;;;;;;;-1.75;80.32;97908.70;1802007;79;21969;-67
2021/01/29 10:22:59;;;;;;;26.65;20.25;;;;;;;-1.74;80.21;97907.80;1808763;79;21041;-69
2021/01/29 10:26:04;;;;;;;29.90;21.52;;;;;;;-1.74;80.05;97905.70;1769426;81;21602;-68
2021/01/29 10:28:52;;;;;;;26.48;20.23;;;;;;;-1.74;80.33;97903.98;1750083;81;21051;-68
2021/01/29 10:31:22;;;;;;;26.68;19.23;;;;;;;-1.70;80.42;97901.69;1790990;79;21041;-68
2021/01/29 10:33:59;;;;;;;23.38;17.62;;;;;;;-1.68;80.33;97897.80;1798103;79;21361;-69
2021/01/29 10:36:31;;;;;;;24.77;18.40;;;;;;;-1.65;80.77;97894.30;1778597;79;21069;-68
2021/01/29 10:39:05;;;;;;;31.75;21.68;;;;;;;-1.61;80.70;97881.34;1741916;81;21278;-70
2021/01/29 10:42:03;;;;;;;33.80;23.22;;;;;;;-1.56;80.88;97881.95;1748745;79;20990;-67
2021/01/29 10:44:34;;;;;;;37.25;23.83;;;;;;;-1.52;81.04;97883.94;1761565;80;21630;-68
2021/01/29 10:47:11;;;;;;;34.85;24.40;;;;;;;-1.49;81.28;97878.70;1762023;79;22094;-67
2021/01/29 10:50:22;;;;;;;31.48;21.87;;;;;;;-1.45;81.43;97875.97;1739605;81;21619;-71
2021/01/29 10:53:14;;;;;;;33.67;21.95;;;;;;;-1.39;81.50;97875.70;1745050;79;21599;-67
2021/01/29 10:55:59;;;;;;;35.60;22.73;;;;;;;-1.28;81.64;97871.88;1768060;80;21036;-69
2021/01/29 10:58:33;;;;;;;32.90;22.02;;;;;;;-1.19;81.51;97872.73;1767208;80;21049;-66
2021/01/29 11:01:21;;;;;;;36.98;24.18;;;;;;;-1.09;81.36;97870.99;1772641;79;21213;-69
2021/01/29 11:04:11;;;;;;;33.88;23.57;;;;;;;-1.04;81.08;97875.91;1757407;80;20985;-69
2021/01/29 11:07:05;;;;;;;30.32;22.90;;;;;;;-1.02;81.42;97870.28;1690940;84;21782;-66
2021/01/29 11:09:38;;;;;;;27.77;20.23;;;;;;;-0.97;81.30;97870.91;1728233;80;21664;-66
2021/01/29 11:12:22;;;;;;;27.10;20.62;;;;;;;-0.90;81.12;97865.91;1760953;80;21132;-66
2021/01/29 11:14:57;;;;;;;27.15;20.08;;;;;;;-0.86;80.99;97862.77;1774269;80;21649;-67
2021/01/29 11:17:35;;;;;;;27.98;21.52;;;;;;;-0.82;80.63;97857.46;1765097;80;21040;-66
2021/01/29 11:20:11;;;;;;;28.42;21.68;;;;;;;-0.78;80.99;97856.84;1774503;80;21605;-64
2021/01/29 11:23:21;;;;;;;27.67;20.57;;;;;;;-0.76;81.23;97848.21;1753787;80;20955;-64
2021/01/29 11:26:23;;;;;;;31.07;20.00;;;;;;;-0.69;81.23;97853.43;1763780;80;21643;-65
2021/01/29 11:29:06;;;;;;;32.88;21.87;;;;;;;-0.65;80.72;97846.45;1773450;80;22247;-65
2021/01/29 11:31:49;;;;;;;26.40;20.43;;;;;;;-0.64;80.49;97851.11;1788551;79;21627;-65
2021/01/29 11:34:30;;;;;;;27.60;21.27;;;;;;;-0.64;80.39;97844.28;1750340;79;21654;-65
2021/01/29 11:37:17;;;;;;;28.57;20.40;;;;;;;-0.62;80.17;97850.59;1770993;79;22254;-65
2021/01/29 11:40:00;;;;;;;35.43;24.23;;;;;;;-0.60;80.21;97847.07;1776971;79;20955;-65
2021/01/29 11:42:54;;;;;;;28.65;21.35;;;;;;;-0.58;80.12;97850.84;1791310;79;22372;-64
2021/01/29 11:45:25;;;;;;;27.93;21.50;;;;;;;-0.57;80.06;97855.05;1791352;79;21634;-65
2021/01/29 11:48:08;;;;;;;31.57;20.17;;;;;;;-0.53;80.37;97846.34;1743344;79;21658;-66
2021/01/29 11:50:41;;;;;;;24.43;17.45;;;;;;;-0.47;80.49;97858.39;1770923;79;22237;-64
2021/01/29 11:53:24;;;;;;;23.07;17.02;;;;;;;-0.40;80.61;97849.52;1745913;80;20942;-64
2021/01/29 11:56:22;;;;;;;23.70;17.17;;;;;;;-0.31;79.99;97856.38;1786364;79;22175;-64
2021/01/29 11:58:59;;;;;;;25.62;17.87;;;;;;;-0.21;79.67;97862.72;1784727;79;21746;-66
2021/01/29 12:01:33;;;;;;;24.12;18.00;;;;;;;-0.09;79.46;97861.70;1787173;79;21040;-66
2021/01/29 12:04:44;;;;;;;25.30;18.12;;;;;;;0.05;78.80;97866.58;1779872;80;21088;-65
2021/01/29 12:07:23;;;;;;;23.67;16.57;;;;;;;0.18;78.35;97863.36;1772326;79;21007;-69
2021/01/29 12:10:02;;;;;;;21.73;16.55;;;;;;;0.34;77.59;97869.84;1758387;80;21378;-68
2021/01/29 12:12:41;;;;;;;20.77;15.75;;;;;;;0.43;77.04;97869.81;1784060;79;21139;-66
2021/01/29 12:15:24;;;;;;;23.90;16.48;;;;;;;0.47;76.41;97870.03;1746857;80;21049;-66
2021/01/29 12:17:57;;;;;;;24.45;16.85;;;;;;;0.46;75.97;97869.20;1777267;79;21590;-67
2021/01/29 12:20:32;;;;;;;24.23;16.35;;;;;;;0.36;75.84;97868.48;1754439;80;21005;-67
2021/01/29 12:23:43;;;;;;;24.67;18.95;;;;;;;0.26;75.67;97868.11;1793276;79;22086;-68
2021/01/29 12:26:43;;;;;;;21.02;15.98;;;;;;;0.16;76.04;97863.88;1781415;79;21606;-67
2021/01/29 12:29:41;;;;;;;24.87;18.10;;;;;;;0.13;76.26;97869.15;1750010;80;21642;-69
2021/01/29 12:32:26;;;;;;;25.60;18.45;;;;;;;0.14;76.71;97866.14;1762644;80;21575;-65
2021/01/29 12:35:09;;;;;;;23.85;16.93;;;;;;;0.16;76.96;97872.84;1782016;80;21053;-67
2021/01/29 12:37:45;;;;;;;22.35;16.75;;;;;;;0.20;76.92;97869.68;1777188;79;22229;-67
2021/01/29 12:40:25;;;;;;;24.35;17.12;;;;;;;0.23;76.77;97870.81;1756225;79;21645;-69
2021/01/29 12:43:21;;;;;;;21.80;15.55;;;;;;;0.25;76.84;97867.73;1779888;79;21527;-68
2021/01/29 12:46:01;;;;;;;23.15;17.30;;;;;;;0.27;76.66;97869.77;1795317;79;21602;-68
2021/01/29 12:48:56;;;;;;;23.77;17.85;;;;;;;0.27;76.43;97878.72;1772549;78;21018;-68
2021/01/29 12:51:32;;;;;;;23.52;16.45;;;;;;;0.27;76.32;97883.84;1680671;83;21681;-65
2021/01/29 12:54:11;;;;;;;22.58;16.57;;;;;;;0.26;76.33;97879.63;1761925;80;21084;-66
2021/01/29 12:56:53;;;;;;;22.45;16.27;;;;;;;0.24;76.55;97872.02;1760675;81;21607;-65
2021/01/29 12:59:43;;;;;;;19.60;14.47;;;;;;;0.25;76.64;97872.84;1785638;79;21637;-66
2021/01/29 13:02:21;;;;;;;22.95;16.02;;;;;;;0.24;76.70;97876.31;1788451;78;21618;-65
2021/01/29 13:05:03;;;;;;;19.07;14.90;;;;;;;0.23;76.79;97875.48;1799846;78;21267;-66